createdAt,value
2023-04-26T00:00:22.742Z,1.68
2023-04-26T00:02:58.696Z,1.66
2023-04-26T00:04:03.903Z,1.64
2023-04-26T00:05:05.697Z,1.63
2023-04-26T00:06:07.143Z,1.63
2023-04-26T00:07:08.889Z,1.62
2023-04-26T00:08:10.827Z,1.62
2023-04-26T00:09:12.367Z,1.62
2023-04-26T00:10:14.062Z,1.62
2023-04-26T00:11:15.783Z,1.62
2023-04-26T00:12:17.547Z,1.62
2023-04-26T00:13:19.297Z,1.62
2023-04-26T00:14:20.995Z,1.61
2023-04-26T00:15:22.720Z,1.61
2023-04-26T00:16:24.523Z,1.6
2023-04-26T00:17:26.234Z,1.59
2023-04-26T00:18:27.919Z,1.58
2023-04-26T00:19:29.663Z,1.56
2023-04-26T00:20:31.414Z,1.57
2023-04-26T00:21:33.116Z,1.57
2023-04-26T00:22:34.886Z,1.57
2023-04-26T00:23:36.627Z,1.58
2023-04-26T00:24:38.347Z,1.58
2023-04-26T00:25:40.089Z,1.58
2023-04-26T00:26:41.838Z,1.58
2023-04-26T00:27:43.546Z,1.59
2023-04-26T00:28:45.263Z,1.6
2023-04-26T00:29:47.006Z,1.59
2023-04-26T00:30:48.749Z,1.59
2023-04-26T00:31:50.531Z,1.59
2023-04-26T00:32:52.244Z,1.59
2023-04-26T00:33:53.969Z,1.58
2023-04-26T00:34:55.659Z,1.57
2023-04-26T00:35:57.423Z,1.57
2023-04-26T00:36:59.136Z,1.56
2023-04-26T00:38:01.009Z,1.54
2023-04-26T00:39:02.618Z,1.54
2023-04-26T00:40:04.322Z,1.52
2023-04-26T00:41:06.070Z,1.51
2023-04-26T00:42:07.806Z,1.5
2023-04-26T00:43:09.682Z,1.49
2023-04-26T00:44:11.307Z,1.49
2023-04-26T00:45:13.015Z,1.48
2023-04-26T00:46:14.785Z,1.46
2023-04-26T00:47:16.457Z,1.46
2023-04-26T00:48:18.188Z,1.46
2023-04-26T00:49:19.938Z,1.46
2023-04-26T00:50:21.682Z,1.45
2023-04-26T00:51:23.394Z,1.46
2023-04-26T00:52:25.152Z,1.46
2023-04-26T00:53:26.872Z,1.47
2023-04-26T00:54:28.678Z,1.46
2023-04-26T00:55:30.402Z,1.45
2023-04-26T00:56:32.085Z,1.45
2023-04-26T00:57:33.806Z,1.46
2023-04-26T00:58:35.546Z,1.46
2023-04-26T00:59:37.266Z,1.46
2023-04-26T01:00:38.990Z,1.47
2023-04-26T01:01:40.857Z,1.46
2023-04-26T01:02:42.631Z,1.46
2023-04-26T01:03:44.510Z,1.47
2023-04-26T01:04:45.926Z,1.46
2023-04-26T01:05:47.667Z,1.46
2023-04-26T01:06:49.396Z,1.46
2023-04-26T01:07:51.172Z,1.47
2023-04-26T01:08:53.335Z,1.47
2023-04-26T01:09:54.623Z,1.46
2023-04-26T01:10:56.354Z,1.46
2023-04-26T01:11:58.064Z,1.45
2023-04-26T01:12:59.809Z,1.45
2023-04-26T01:14:01.554Z,1.44
2023-04-26T01:15:03.319Z,1.44
2023-04-26T01:16:05.044Z,1.43
2023-04-26T01:17:06.923Z,1.43
2023-04-26T01:18:08.483Z,1.42
2023-04-26T01:19:10.232Z,1.41
2023-04-26T01:20:11.929Z,1.39
2023-04-26T01:21:13.700Z,1.39
2023-04-26T01:22:15.429Z,1.38
2023-04-26T01:23:17.123Z,1.37
2023-04-26T01:24:18.905Z,1.37
2023-04-26T01:25:20.615Z,1.35
2023-04-26T01:26:22.335Z,1.34
2023-04-26T01:27:24.087Z,1.35
2023-04-26T01:28:25.786Z,1.34
2023-04-26T01:29:27.544Z,1.34
2023-04-26T01:30:29.281Z,1.35
2023-04-26T01:31:31.081Z,1.34
2023-04-26T01:32:32.790Z,1.34
2023-04-26T01:33:34.482Z,1.34
2023-04-26T01:34:36.217Z,1.34
2023-04-26T01:35:37.938Z,1.35
2023-04-26T01:36:39.679Z,1.34
2023-04-26T01:37:41.436Z,1.33
2023-04-26T01:38:43.149Z,1.33
2023-04-26T01:39:44.858Z,1.33
2023-04-26T01:40:46.622Z,1.32
2023-04-26T01:41:48.331Z,1.31
2023-04-26T01:42:50.087Z,1.3
2023-04-26T01:43:51.809Z,1.3
2023-04-26T01:44:53.544Z,1.29
2023-04-26T01:45:55.319Z,1.28
2023-04-26T01:46:57.003Z,1.27
2023-04-26T01:47:58.786Z,1.27
2023-04-26T01:49:00.454Z,1.26
2023-04-26T01:50:02.220Z,1.26
2023-04-26T01:51:03.934Z,1.25
2023-04-26T01:52:05.668Z,1.25
2023-04-26T01:53:07.440Z,1.25
2023-04-26T01:54:09.158Z,1.24
2023-04-26T01:55:10.882Z,1.24
2023-04-26T01:56:12.606Z,1.24
2023-04-26T01:57:14.350Z,1.24
2023-04-26T01:58:16.070Z,1.24
2023-04-26T01:59:17.802Z,1.25
2023-04-26T02:00:19.589Z,1.25
2023-04-26T02:01:21.296Z,1.25
2023-04-26T02:02:23.027Z,1.24
2023-04-26T02:03:24.838Z,1.25
2023-04-26T02:04:26.489Z,1.27
2023-04-26T02:05:28.256Z,1.26
2023-04-26T02:06:29.952Z,1.27
2023-04-26T02:07:31.801Z,1.27
2023-04-26T02:08:33.398Z,1.27
2023-04-26T02:09:35.148Z,1.26
2023-04-26T02:10:36.857Z,1.24
2023-04-26T02:11:38.582Z,1.24
2023-04-26T02:12:40.344Z,1.22
2023-04-26T02:13:42.082Z,1.21
2023-04-26T02:14:43.836Z,1.19
2023-04-26T02:15:45.573Z,1.18
2023-04-26T02:16:47.264Z,1.17
2023-04-26T02:17:49.015Z,1.15
2023-04-26T02:18:50.951Z,1.14
2023-04-26T02:19:52.457Z,1.14
2023-04-26T02:20:54.207Z,1.12
2023-04-26T02:21:55.925Z,1.11
2023-04-26T02:22:57.659Z,1.09
2023-04-26T02:23:59.398Z,1.09
2023-04-26T02:25:01.190Z,1.09
2023-04-26T02:26:02.874Z,1.08
2023-04-26T02:27:04.609Z,1.08
2023-04-26T02:28:06.320Z,1.07
2023-04-26T02:29:08.080Z,1.07
2023-04-26T02:30:09.792Z,1.05
2023-04-26T02:31:11.589Z,1.03
2023-04-26T02:32:13.306Z,1.02
2023-04-26T02:33:15.028Z,1
2023-04-26T02:34:16.754Z,0.99
2023-04-26T02:35:18.477Z,0.97
2023-04-26T02:36:20.254Z,0.96
2023-04-26T02:37:21.952Z,0.94
2023-04-26T02:38:23.690Z,0.94
2023-04-26T02:39:25.418Z,0.94
2023-04-26T02:40:27.156Z,0.94
2023-04-26T02:41:28.913Z,0.96
2023-04-26T02:42:30.603Z,0.96
2023-04-26T02:43:32.342Z,0.97
2023-04-26T02:44:34.097Z,0.99
2023-04-26T02:45:35.810Z,1
2023-04-26T02:46:37.764Z,1.01
2023-04-26T02:47:39.354Z,1.02
2023-04-26T02:48:41.015Z,1.03
2023-04-26T02:49:42.765Z,1.05
2023-04-26T02:50:44.492Z,1.07
2023-04-26T02:51:46.225Z,1.07
2023-04-26T02:52:47.963Z,1.07
2023-04-26T02:53:49.763Z,1.08
2023-04-26T02:54:51.414Z,1.08
2023-04-26T02:55:53.146Z,1.07
2023-04-26T02:56:54.897Z,1.07
2023-04-26T02:57:56.610Z,1.07
2023-04-26T02:58:58.342Z,1.06
2023-04-26T03:00:00.175Z,1.06
2023-04-26T03:01:02.024Z,1.06
2023-04-26T03:02:03.589Z,1.05
2023-04-26T03:03:05.382Z,1.06
2023-04-26T03:04:07.177Z,1.07
2023-04-26T03:05:08.772Z,1.07
2023-04-26T03:06:10.493Z,1.06
2023-04-26T03:07:12.224Z,1.06
2023-04-26T03:08:19.044Z,1.06
2023-04-26T03:09:20.763Z,1.05
2023-04-26T03:10:22.510Z,1.04
2023-04-26T03:11:24.226Z,1.03
2023-04-26T03:12:25.980Z,1.03
2023-04-26T03:13:27.735Z,1.02
2023-04-26T03:14:29.443Z,1.02
2023-04-26T03:15:31.187Z,1.01
2023-04-26T03:16:32.928Z,0.99
2023-04-26T03:17:34.727Z,1.01
2023-04-26T03:18:36.372Z,1.01
2023-04-26T03:19:38.091Z,1.01
2023-04-26T03:20:39.856Z,1
2023-04-26T03:21:41.578Z,1.01
2023-04-26T03:22:43.338Z,1
2023-04-26T03:23:45.034Z,1
2023-04-26T03:24:46.766Z,1
2023-04-26T03:25:48.519Z,1
2023-04-26T03:26:50.409Z,0.99
2023-04-26T03:27:51.974Z,0.98
2023-04-26T03:28:53.966Z,0.97
2023-04-26T03:29:55.449Z,0.96
2023-04-26T03:30:57.397Z,0.95
2023-04-26T03:31:58.943Z,0.93
2023-04-26T03:33:00.693Z,0.91
2023-04-26T03:34:02.387Z,0.89
2023-04-26T03:35:04.098Z,0.87
2023-04-26T03:36:05.860Z,0.84
2023-04-26T03:37:07.611Z,0.82
2023-04-26T03:38:09.311Z,0.78
2023-04-26T03:39:11.036Z,0.77
2023-04-26T03:40:12.776Z,0.74
2023-04-26T03:41:14.539Z,0.72
2023-04-26T03:42:16.224Z,0.7
2023-04-26T03:43:17.994Z,0.68
2023-04-26T03:44:19.705Z,0.65
2023-04-26T03:45:21.440Z,0.64
2023-04-26T03:46:23.212Z,0.63
2023-04-26T03:47:24.936Z,0.61
2023-04-26T03:48:26.635Z,0.61
2023-04-26T03:49:28.371Z,0.59
2023-04-26T03:50:30.114Z,0.58
2023-04-26T03:51:31.841Z,0.59
2023-04-26T03:52:33.589Z,0.57
2023-04-26T03:53:35.318Z,0.57
2023-04-26T03:54:37.048Z,0.56
2023-04-26T03:55:38.783Z,0.56
2023-04-26T03:56:40.530Z,0.57
2023-04-26T03:57:42.266Z,0.58
2023-04-26T03:58:43.975Z,0.58
2023-04-26T03:59:45.725Z,0.59
2023-04-26T04:00:47.492Z,0.59
2023-04-26T04:01:49.214Z,0.6
2023-04-26T04:02:50.988Z,0.61
2023-04-26T04:03:52.813Z,0.61
2023-04-26T04:04:54.537Z,0.63
2023-04-26T04:05:56.109Z,0.64
2023-04-26T04:06:57.864Z,0.65
2023-04-26T04:07:59.608Z,0.65
2023-04-26T04:09:01.321Z,0.66
2023-04-26T04:10:03.067Z,0.67
2023-04-26T04:11:04.805Z,0.66
2023-04-26T04:12:06.516Z,0.68
2023-04-26T04:13:08.260Z,0.68
2023-04-26T04:14:09.987Z,0.69
2023-04-26T04:15:11.735Z,0.7
2023-04-26T04:16:13.507Z,0.71
2023-04-26T04:17:15.197Z,0.71
2023-04-26T04:18:16.993Z,0.71
2023-04-26T04:19:18.926Z,0.71
2023-04-26T04:20:20.380Z,0.7
2023-04-26T04:21:22.145Z,0.68
2023-04-26T04:22:23.858Z,0.66
2023-04-26T04:23:25.602Z,0.61
2023-04-26T04:24:27.327Z,0.59
2023-04-26T04:25:29.044Z,0.56
2023-04-26T04:26:30.790Z,0.53
2023-04-26T04:27:32.526Z,0.5
2023-04-26T04:28:34.286Z,0.47
2023-04-26T04:29:35.982Z,0.45
2023-04-26T04:30:37.749Z,0.44
2023-04-26T04:31:39.536Z,0.42
2023-04-26T04:32:41.192Z,0.41
2023-04-26T04:33:43.089Z,0.41
2023-04-26T04:36:32.973Z,0.37
2023-04-26T04:39:42.876Z,0.32
2023-04-26T04:40:44.599Z,0.31
2023-04-26T04:41:46.308Z,0.3
2023-04-26T04:42:48.129Z,0.29
2023-04-26T04:43:49.755Z,0.28
2023-04-26T04:44:51.616Z,0.25
2023-04-26T04:45:53.384Z,0.24
2023-04-26T04:46:55.002Z,0.22
2023-04-26T04:47:56.743Z,0.21
2023-04-26T04:48:58.384Z,0.19
2023-04-26T04:50:00.159Z,0.19
2023-04-26T04:51:01.878Z,0.17
2023-04-26T04:52:03.558Z,0.17
2023-04-26T04:53:05.279Z,0.17
2023-04-26T04:54:07.008Z,0.15
2023-04-26T04:55:08.726Z,0.15
2023-04-26T04:56:10.467Z,0.15
2023-04-26T04:57:12.200Z,0.16
2023-04-26T04:58:13.940Z,0.17
2023-04-26T04:59:15.647Z,0.18
2023-04-26T05:00:17.363Z,0.19
2023-04-26T05:01:19.108Z,0.21
2023-04-26T05:02:20.978Z,0.22
2023-04-26T05:03:22.676Z,0.22
2023-04-26T05:04:24.636Z,0.24
2023-04-26T05:05:25.988Z,0.24
2023-04-26T05:06:27.766Z,0.24
2023-04-26T05:07:29.496Z,0.25
2023-04-26T05:08:31.237Z,0.26
2023-04-26T05:09:32.955Z,0.27
2023-04-26T05:10:34.699Z,0.29
2023-04-26T05:11:36.411Z,0.29
2023-04-26T05:12:38.189Z,0.31
2023-04-26T05:13:39.883Z,0.32
2023-04-26T05:14:41.650Z,0.34
2023-04-26T05:15:43.338Z,0.36
2023-04-26T05:16:45.226Z,0.38
2023-04-26T05:17:46.834Z,0.41
2023-04-26T05:18:48.570Z,0.42
2023-04-26T05:19:50.273Z,0.45
2023-04-26T05:20:52.016Z,0.48
2023-04-26T05:21:53.749Z,0.51
2023-04-26T05:22:55.512Z,0.54
2023-04-26T05:23:57.230Z,0.58
2023-04-26T05:24:58.923Z,0.6
2023-04-26T05:26:00.693Z,0.63
2023-04-26T05:27:02.647Z,0.66
2023-04-26T05:28:04.267Z,0.69
2023-04-26T05:29:06.009Z,0.73
2023-04-26T05:30:07.638Z,0.75
2023-04-26T05:31:11.225Z,0.78
2023-04-26T05:32:11.174Z,0.81
2023-04-26T05:33:12.842Z,0.85
2023-04-26T05:34:14.643Z,0.87
2023-04-26T05:35:16.287Z,0.9
2023-04-26T05:36:18.011Z,0.93
2023-04-26T05:37:19.791Z,0.97
2023-04-26T05:38:21.477Z,1
2023-04-26T05:39:23.232Z,1.05
2023-04-26T05:40:24.960Z,1.08
2023-04-26T05:41:26.675Z,1.12
2023-04-26T05:42:28.463Z,1.17
2023-04-26T05:43:30.172Z,1.2
2023-04-26T05:44:31.906Z,1.24
2023-04-26T05:45:33.669Z,1.27
2023-04-26T05:46:35.363Z,1.31
2023-04-26T05:47:37.198Z,1.36
2023-04-26T05:48:38.877Z,1.39
2023-04-26T05:49:40.578Z,1.44
2023-04-26T05:50:42.301Z,1.47
2023-04-26T05:51:44.020Z,1.51
2023-04-26T05:52:45.784Z,1.57
2023-04-26T05:53:47.509Z,1.61
2023-04-26T05:54:49.245Z,1.68
2023-04-26T05:55:50.990Z,1.73
2023-04-26T05:56:52.704Z,1.79
2023-04-26T05:57:54.573Z,1.86
2023-04-26T05:58:56.182Z,1.91
2023-04-26T05:59:57.906Z,1.98
2023-04-26T06:00:59.717Z,2.04
2023-04-26T06:02:02.196Z,2.12
2023-04-26T06:03:03.337Z,2.19
2023-04-26T06:04:05.345Z,2.27
2023-04-26T06:05:06.832Z,2.38
2023-04-26T06:06:08.326Z,2.5
2023-04-26T06:07:10.057Z,2.63
2023-04-26T06:08:11.826Z,2.79
2023-04-26T06:09:13.520Z,2.96
2023-04-26T06:10:15.269Z,3.15
2023-04-26T06:11:16.973Z,3.36
2023-04-26T06:12:18.735Z,3.57
2023-04-26T06:13:20.450Z,3.78
2023-04-26T06:14:30.092Z,3.99
2023-04-26T06:15:23.961Z,4.2
2023-04-26T06:16:25.820Z,4.4
2023-04-26T06:17:27.438Z,4.57
2023-04-26T06:18:29.105Z,4.67
2023-04-26T06:19:30.882Z,4.77
2023-04-26T06:20:32.562Z,4.87
2023-04-26T06:21:34.353Z,5
2023-04-26T06:22:36.123Z,5.13
2023-04-26T06:23:37.782Z,5.28
2023-04-26T06:24:39.501Z,5.43
2023-04-26T06:25:41.230Z,5.58
2023-04-26T06:26:43.006Z,5.76
2023-04-26T06:27:44.776Z,5.93
2023-04-26T06:28:46.466Z,6.08
2023-04-26T06:29:48.191Z,6.23
2023-04-26T06:30:50.140Z,6.38
2023-04-26T06:31:51.675Z,6.51
2023-04-26T06:32:53.460Z,6.65
2023-04-26T06:33:55.403Z,6.78
2023-04-26T06:34:56.853Z,6.95
2023-04-26T06:35:58.580Z,7.09
2023-04-26T06:37:00.331Z,7.23
2023-04-26T06:38:02.074Z,7.34
2023-04-26T06:39:03.782Z,7.47
2023-04-26T06:40:05.527Z,7.61
2023-04-26T06:41:07.250Z,7.74
2023-04-26T06:42:09.018Z,7.87
2023-04-26T06:43:10.843Z,7.92
2023-04-26T06:44:12.467Z,8.04
2023-04-26T06:45:14.187Z,8.18
2023-04-26T06:46:15.978Z,8.29
2023-04-26T06:47:17.652Z,8.39
2023-04-26T06:48:19.396Z,8.45
2023-04-26T06:49:21.127Z,8.49
2023-04-26T06:50:22.868Z,8.57
2023-04-26T06:51:24.601Z,8.58
2023-04-26T06:52:26.315Z,8.64
2023-04-26T06:53:28.070Z,8.67
2023-04-26T06:54:29.804Z,8.7
2023-04-26T06:55:32.565Z,8.71
2023-04-26T06:56:33.372Z,8.75
2023-04-26T06:57:35.006Z,8.78
2023-04-26T06:58:36.754Z,8.76
2023-04-26T06:59:38.617Z,8.77
2023-04-26T07:00:40.220Z,8.77
2023-04-26T07:01:42.107Z,8.81
2023-04-26T07:02:43.791Z,8.8
2023-04-26T07:03:45.560Z,8.78
2023-04-26T07:04:47.441Z,8.72
2023-04-26T07:05:48.879Z,8.73
2023-04-26T07:06:50.605Z,8.73
2023-04-26T07:07:52.363Z,8.73
2023-04-26T07:08:54.440Z,8.77
2023-04-26T07:09:55.805Z,8.79
2023-04-26T07:10:57.527Z,8.85
2023-04-26T07:11:59.250Z,8.9
2023-04-26T07:13:01.040Z,8.95
2023-04-26T07:14:02.776Z,9.04
2023-04-26T07:15:04.456Z,9.13
2023-04-26T07:16:06.249Z,9.23
2023-04-26T07:17:07.939Z,9.29
2023-04-26T07:18:09.764Z,9.39
2023-04-26T07:19:11.615Z,9.42
2023-04-26T07:20:13.145Z,9.43
2023-04-26T07:21:14.881Z,9.49
2023-04-26T07:22:16.624Z,9.45
2023-04-26T07:23:18.336Z,9.53
2023-04-26T07:24:20.070Z,9.55
2023-04-26T07:25:21.806Z,9.5
2023-04-26T07:26:23.546Z,9.51
2023-04-26T07:27:25.307Z,9.58
2023-04-26T07:28:27.025Z,9.63
2023-04-26T07:29:28.737Z,9.68
2023-04-26T07:30:30.472Z,9.72
2023-04-26T07:31:32.211Z,9.69
2023-04-26T07:32:34.008Z,9.69
2023-04-26T07:33:35.827Z,9.66
2023-04-26T07:34:37.401Z,9.67
2023-04-26T07:35:39.139Z,9.7
2023-04-26T07:36:40.893Z,9.72
2023-04-26T07:37:42.637Z,9.76
2023-04-26T07:38:44.348Z,9.75
2023-04-26T07:39:46.092Z,9.79
2023-04-26T07:40:47.811Z,9.8
2023-04-26T07:41:49.555Z,9.91
2023-04-26T07:42:51.292Z,9.92
2023-04-26T07:43:53.280Z,9.99
2023-04-26T07:44:54.743Z,10.02
2023-04-26T07:45:56.564Z,10.1
2023-04-26T07:46:58.212Z,10.14
2023-04-26T07:48:00.068Z,10.19
2023-04-26T07:49:01.663Z,10.22
2023-04-26T07:50:03.424Z,10.25
2023-04-26T07:51:05.148Z,10.1
2023-04-26T07:52:06.899Z,10.1
2023-04-26T07:53:08.645Z,10.05
2023-04-26T07:54:10.361Z,10
2023-04-26T07:55:12.091Z,9.97
2023-04-26T07:56:13.842Z,9.93
2023-04-26T07:57:15.600Z,9.94
2023-04-26T07:58:17.637Z,9.96
2023-04-26T07:59:19.033Z,9.96
2023-04-26T08:00:20.750Z,9.98
2023-04-26T08:01:22.519Z,9.97
2023-04-26T08:02:36.853Z,9.91
2023-04-26T08:03:26.128Z,9.99
2023-04-26T08:04:27.883Z,10.03
2023-04-26T08:05:29.637Z,10.09
2023-04-26T08:06:31.171Z,10.09
2023-04-26T08:07:32.899Z,10.12
2023-04-26T08:08:34.688Z,10.21
2023-04-26T08:09:36.355Z,10.28
2023-04-26T08:10:38.089Z,10.32
2023-04-26T08:11:39.852Z,10.37
2023-04-26T08:12:41.574Z,10.44
2023-04-26T08:13:43.306Z,10.45
2023-04-26T08:14:45.034Z,10.54
2023-04-26T08:15:46.789Z,10.57
2023-04-26T08:16:48.506Z,10.66
2023-04-26T08:17:50.302Z,10.73
2023-04-26T08:18:51.960Z,10.81
2023-04-26T08:19:53.682Z,10.89
2023-04-26T08:20:55.436Z,10.98
2023-04-26T08:21:57.181Z,11.08
2023-04-26T08:22:58.916Z,11.21
2023-04-26T08:24:00.627Z,11.21
2023-04-26T08:25:02.368Z,11.16
2023-04-26T08:26:04.114Z,11.23
2023-04-26T08:27:05.987Z,11.22
2023-04-26T08:28:07.621Z,11.22
2023-04-26T08:29:09.300Z,11.24
2023-04-26T08:30:11.056Z,11.21
2023-04-26T08:31:12.778Z,11.2
2023-04-26T08:32:14.488Z,11.22
2023-04-26T08:33:16.245Z,11.21
2023-04-26T08:34:17.956Z,11.25
2023-04-26T08:35:19.725Z,11.28
2023-04-26T08:36:21.454Z,11.31
2023-04-26T08:37:23.209Z,11.32
2023-04-26T08:38:24.896Z,11.37
2023-04-26T08:39:26.636Z,11.41
2023-04-26T08:40:28.390Z,11.4
2023-04-26T08:41:30.118Z,11.34
2023-04-26T08:42:32.044Z,11.32
2023-04-26T08:43:33.581Z,11.37
2023-04-26T08:44:35.296Z,11.38
2023-04-26T08:45:37.135Z,11.41
2023-04-26T08:46:38.815Z,11.45
2023-04-26T08:47:40.645Z,11.46
2023-04-26T08:48:42.282Z,11.49
2023-04-26T08:49:44.019Z,11.42
2023-04-26T08:50:45.721Z,11.43
2023-04-26T08:51:47.464Z,11.39
2023-04-26T08:52:49.222Z,11.38
2023-04-26T08:53:51.063Z,11.17
2023-04-26T08:54:52.712Z,11.17
2023-04-26T08:55:54.403Z,11.18
2023-04-26T08:56:56.127Z,11.2
2023-04-26T08:57:57.878Z,11.2
2023-04-26T08:58:59.609Z,11.26
2023-04-26T09:00:01.331Z,11.31
2023-04-26T09:01:03.100Z,11.4
2023-04-26T09:02:05.052Z,11.51
2023-04-26T09:03:06.681Z,11.62
2023-04-26T09:04:08.427Z,11.73
2023-04-26T09:05:10.063Z,11.82
2023-04-26T09:06:11.750Z,11.92
2023-04-26T09:07:13.446Z,12.01
2023-04-26T09:08:15.370Z,12.1
2023-04-26T09:09:16.928Z,12.16
2023-04-26T09:10:18.665Z,12.13
2023-04-26T09:11:20.418Z,12.13
2023-04-26T09:12:22.243Z,12.09
2023-04-26T09:13:23.871Z,12.04
2023-04-26T09:14:25.616Z,11.97
2023-04-26T09:15:27.343Z,11.9
2023-04-26T09:16:29.116Z,11.86
2023-04-26T09:17:30.912Z,11.8
2023-04-26T09:18:32.546Z,11.76
2023-04-26T09:19:34.286Z,11.74
2023-04-26T09:20:36.211Z,11.78
2023-04-26T09:21:37.790Z,11.84
2023-04-26T09:22:39.475Z,11.91
2023-04-26T09:23:41.205Z,11.99
2023-04-26T09:24:42.927Z,12.12
2023-04-26T09:25:44.659Z,12.19
2023-04-26T09:26:46.401Z,12.25
2023-04-26T09:27:48.149Z,12.34
2023-04-26T09:28:49.924Z,12.42
2023-04-26T09:29:51.593Z,12.54
2023-04-26T09:30:53.322Z,12.6
2023-04-26T09:31:55.155Z,12.68
2023-04-26T09:32:56.892Z,12.77
2023-04-26T09:33:58.546Z,12.82
2023-04-26T09:35:00.275Z,12.89
2023-04-26T09:36:02.012Z,12.91
2023-04-26T09:37:03.734Z,12.97
2023-04-26T09:38:11.801Z,12.93
2023-04-26T09:39:07.227Z,12.92
2023-04-26T09:40:08.932Z,12.92
2023-04-26T09:41:10.660Z,12.81
2023-04-26T09:42:12.406Z,12.83
2023-04-26T09:43:14.508Z,12.78
2023-04-26T09:44:15.903Z,12.72
2023-04-26T09:45:17.644Z,12.64
2023-04-26T09:46:19.406Z,12.52
2023-04-26T09:47:21.102Z,12.45
2023-04-26T09:48:23.255Z,12.41
2023-04-26T09:49:24.557Z,12.37
2023-04-26T09:50:26.276Z,12.33
2023-04-26T09:51:28.010Z,12.3
2023-04-26T09:52:29.766Z,12.26
2023-04-26T09:53:31.476Z,12.19
2023-04-26T09:54:33.214Z,12.15
2023-04-26T09:55:35.860Z,12.11
2023-04-26T09:56:36.691Z,11.99
2023-04-26T09:57:38.584Z,11.96
2023-04-26T09:58:40.166Z,11.9
2023-04-26T09:59:41.882Z,11.87
2023-04-26T10:00:43.845Z,11.83
2023-04-26T10:01:45.372Z,11.82
2023-04-26T10:02:47.236Z,11.81
2023-04-26T10:03:49.059Z,11.84
2023-04-26T10:04:50.614Z,11.82
2023-04-26T10:05:52.324Z,11.87
2023-04-26T10:06:54.051Z,11.89
2023-04-26T10:07:55.807Z,11.91
2023-04-26T10:08:57.533Z,11.95
2023-04-26T10:09:59.238Z,11.96
2023-04-26T10:11:00.962Z,11.98
2023-04-26T10:12:02.720Z,11.97
2023-04-26T10:13:04.464Z,12
2023-04-26T10:14:06.175Z,11.75
2023-04-26T10:15:07.905Z,11.71
2023-04-26T10:16:09.722Z,11.66
2023-04-26T10:17:11.380Z,11.67
2023-04-26T10:18:13.158Z,11.63
2023-04-26T10:19:14.829Z,11.61
2023-04-26T10:20:16.638Z,11.58
2023-04-26T10:21:18.297Z,11.59
2023-04-26T10:22:20.055Z,11.62
2023-04-26T10:23:21.787Z,11.62
2023-04-26T10:24:23.503Z,11.6
2023-04-26T10:25:25.232Z,11.63
2023-04-26T10:26:26.980Z,11.66
2023-04-26T10:27:28.721Z,11.69
2023-04-26T10:28:30.439Z,11.7
2023-04-26T10:29:32.175Z,11.71
2023-04-26T10:30:33.908Z,11.7
2023-04-26T10:31:35.693Z,11.73
2023-04-26T10:32:37.398Z,11.75
2023-04-26T10:33:39.134Z,11.81
2023-04-26T10:34:40.864Z,11.89
2023-04-26T10:35:42.574Z,11.94
2023-04-26T10:36:44.312Z,12.03
2023-04-26T10:37:46.061Z,12.17
2023-04-26T10:38:47.824Z,12.29
2023-04-26T10:39:49.525Z,12.39
2023-04-26T10:40:52.146Z,12.55
2023-04-26T10:41:52.980Z,12.58
2023-04-26T10:42:54.736Z,12.69
2023-04-26T10:43:56.518Z,12.79
2023-04-26T10:44:58.209Z,12.87
2023-04-26T10:45:59.962Z,12.85
2023-04-26T10:47:01.659Z,12.88
2023-04-26T10:48:03.511Z,12.88
2023-04-26T10:49:05.206Z,12.89
2023-04-26T10:50:06.881Z,12.93
2023-04-26T10:51:08.756Z,13
2023-04-26T10:52:10.335Z,13.09
2023-04-26T10:53:12.100Z,13.21
2023-04-26T10:54:13.798Z,13.26
2023-04-26T10:55:15.549Z,13.32
2023-04-26T10:56:17.253Z,13.42
2023-04-26T10:57:18.999Z,13.5
2023-04-26T10:58:20.763Z,13.63
2023-04-26T10:59:39.829Z,13.78
2023-04-26T11:00:24.217Z,13.89
2023-04-26T11:01:25.985Z,14
2023-04-26T11:02:27.757Z,14.14
2023-04-26T11:03:29.699Z,14.29
2023-04-26T11:04:31.234Z,14.43
2023-04-26T11:05:32.890Z,14.52
2023-04-26T11:06:34.619Z,14.64
2023-04-26T11:07:36.366Z,14.65
2023-04-26T11:08:38.111Z,14.74
2023-04-26T11:09:39.963Z,14.77
2023-04-26T11:10:41.548Z,14.91
2023-04-26T11:11:43.278Z,14.95
2023-04-26T11:12:45.035Z,14.95
2023-04-26T11:13:46.772Z,14.88
2023-04-26T11:14:48.715Z,14.88
2023-04-26T11:15:52.504Z,14.85
2023-04-26T11:16:51.952Z,14.85
2023-04-26T11:17:53.775Z,14.8
2023-04-26T11:18:55.654Z,14.74
2023-04-26T11:19:57.159Z,14.75
2023-04-26T11:20:58.913Z,14.75
2023-04-26T11:22:00.628Z,14.8
2023-04-26T11:23:02.361Z,14.83
2023-04-26T11:24:04.109Z,14.93
2023-04-26T11:25:05.835Z,15.06
2023-04-26T11:26:07.623Z,15.15
2023-04-26T11:27:09.328Z,15.33
2023-04-26T11:28:11.052Z,15.47
2023-04-26T11:29:12.764Z,15.56
2023-04-26T11:30:14.523Z,15.66
2023-04-26T11:31:16.275Z,15.74
2023-04-26T11:32:17.970Z,15.9
2023-04-26T11:33:19.761Z,16.03
2023-04-26T11:34:21.452Z,16.13
2023-04-26T11:35:23.184Z,16.29
2023-04-26T11:36:24.920Z,16.44
2023-04-26T11:37:26.635Z,16.55
2023-04-26T11:38:28.399Z,16.5
2023-04-26T11:39:30.092Z,16.53
2023-04-26T11:40:31.850Z,16.54
2023-04-26T11:41:33.584Z,16.52
2023-04-26T11:42:35.331Z,16.56
2023-04-26T11:43:37.135Z,16.55
2023-04-26T11:44:38.777Z,16.49
2023-04-26T11:45:40.563Z,16.5
2023-04-26T11:46:42.272Z,16.46
2023-04-26T11:47:44.038Z,16.47
2023-04-26T11:48:45.717Z,16.45
2023-04-26T11:49:47.448Z,16.09
2023-04-26T11:50:49.194Z,16.2
2023-04-26T11:51:50.914Z,16.19
2023-04-26T11:52:52.653Z,16.17
2023-04-26T11:53:54.388Z,16.09
2023-04-26T11:54:56.101Z,15.88
2023-04-26T11:55:57.847Z,15.78
2023-04-26T11:56:59.585Z,15.31
2023-04-26T11:58:01.361Z,15.49
2023-04-26T11:59:03.048Z,15.36
2023-04-26T12:00:04.776Z,15.37
2023-04-26T12:01:06.522Z,15.26
2023-04-26T12:02:08.387Z,15.03
2023-04-26T12:03:10.306Z,15.04
2023-04-26T12:04:11.925Z,14.98
2023-04-26T12:05:13.527Z,14.89
2023-04-26T12:06:15.181Z,14.83
2023-04-26T12:07:16.917Z,14.72
2023-04-26T12:08:18.667Z,14.61
2023-04-26T12:09:20.367Z,14.55
2023-04-26T12:10:22.130Z,14.53
2023-04-26T12:11:23.866Z,14.35
2023-04-26T12:12:25.600Z,14.37
2023-04-26T12:13:27.474Z,14.22
2023-04-26T12:14:29.055Z,14.1
2023-04-26T12:15:30.794Z,14.07
2023-04-26T12:16:32.576Z,14.11
2023-04-26T12:17:34.371Z,13.91
2023-04-26T12:18:35.982Z,13.99
2023-04-26T12:19:37.707Z,13.82
2023-04-26T12:20:39.448Z,13.81
2023-04-26T12:21:41.192Z,13.71
2023-04-26T12:22:42.936Z,13.75
2023-04-26T12:23:44.641Z,13.72
2023-04-26T12:24:46.367Z,13.68
2023-04-26T12:25:48.115Z,13.54
2023-04-26T12:26:49.834Z,13.57
2023-04-26T12:27:51.610Z,13.4
2023-04-26T12:28:53.329Z,13.4
2023-04-26T12:29:55.056Z,13.35
2023-04-26T12:30:56.773Z,13.34
2023-04-26T12:31:58.777Z,13.35
2023-04-26T12:33:13.077Z,13.32
2023-04-26T12:34:01.985Z,13.3
2023-04-26T12:35:03.734Z,13.27
2023-04-26T12:36:05.458Z,13.16
2023-04-26T12:37:07.194Z,13.06
2023-04-26T12:38:09.028Z,13.1
2023-04-26T12:39:10.650Z,13.07
2023-04-26T12:40:12.402Z,12.99
2023-04-26T12:41:14.162Z,13.02
2023-04-26T12:42:15.868Z,13.01
2023-04-26T12:43:17.610Z,13.02
2023-04-26T12:44:21.853Z,13.06
2023-04-26T12:45:21.071Z,13.11
2023-04-26T12:46:22.852Z,13.2
2023-04-26T12:47:24.603Z,13.23
2023-04-26T12:48:26.281Z,13.29
2023-04-26T12:49:28.009Z,13.37
2023-04-26T12:50:29.744Z,13.43
2023-04-26T12:51:31.489Z,13.49
2023-04-26T12:52:33.234Z,13.57
2023-04-26T12:53:34.938Z,13.63
2023-04-26T12:54:36.677Z,13.69
2023-04-26T12:55:38.410Z,13.73
2023-04-26T12:56:40.136Z,13.78
2023-04-26T12:57:41.890Z,13.78
2023-04-26T12:58:43.775Z,13.8
2023-04-26T12:59:45.348Z,13.85
2023-04-26T13:00:47.097Z,13.89
2023-04-26T13:01:48.881Z,13.9
2023-04-26T13:02:50.638Z,13.93
2023-04-26T13:03:52.437Z,13.95
2023-04-26T13:04:54.233Z,14.06
2023-04-26T13:05:55.762Z,14.14
2023-04-26T13:06:57.497Z,14.16
2023-04-26T13:07:59.230Z,14.23
2023-04-26T13:09:00.949Z,14.33
2023-04-26T13:10:02.708Z,14.38
2023-04-26T13:11:04.419Z,14.41
2023-04-26T13:12:06.161Z,14.47
2023-04-26T13:13:07.895Z,14.43
2023-04-26T13:14:09.787Z,14.46
2023-04-26T13:15:11.369Z,14.55
2023-04-26T13:16:13.600Z,14.57
2023-04-26T13:17:14.814Z,14.63
2023-04-26T13:18:16.925Z,14.68
2023-04-26T13:19:18.300Z,14.62
2023-04-26T13:20:20.014Z,14.62
2023-04-26T13:21:21.747Z,14.67
2023-04-26T13:22:23.478Z,14.85
2023-04-26T13:23:25.235Z,15.03
2023-04-26T13:24:26.953Z,15.24
2023-04-26T13:25:28.692Z,15.42
2023-04-26T13:26:30.410Z,15.69
2023-04-26T13:27:32.143Z,15.72
2023-04-26T13:28:33.902Z,15.99
2023-04-26T13:29:35.614Z,16.1
2023-04-26T13:30:37.363Z,16.3
2023-04-26T13:31:39.130Z,16.53
2023-04-26T13:32:40.916Z,16.72
2023-04-26T13:33:42.594Z,16.83
2023-04-26T13:34:44.284Z,17.02
2023-04-26T13:35:46.039Z,17.1
2023-04-26T13:36:47.765Z,17.23
2023-04-26T13:37:49.505Z,17.23
2023-04-26T13:38:51.229Z,17.29